createdAt,value
2018-01-11T00:02:24.031Z,23.30
2018-01-11T00:04:52.096Z,24.00
2018-01-11T00:07:20.153Z,24.83
2018-01-11T00:09:49.097Z,23.55
2018-01-11T00:12:17.182Z,24.87
2018-01-11T00:14:45.241Z,25.53
2018-01-11T00:17:13.295Z,26.10
2018-01-11T00:19:41.362Z,23.50
2018-01-11T00:22:09.413Z,25.30
2018-01-11T00:24:38.276Z,22.60
2018-01-11T00:27:06.338Z,22.97
2018-01-11T00:29:34.431Z,25.02
2018-01-11T00:32:02.498Z,23.13
2018-01-11T00:34:30.570Z,25.60
2018-01-11T00:37:00.509Z,31.73
2018-01-11T00:39:29.706Z,26.27
2018-01-11T00:41:57.778Z,27.07
2018-01-11T00:44:25.850Z,23.85
2018-01-11T00:46:53.925Z,24.08
2018-01-11T00:49:22.106Z,23.48
2018-01-11T00:51:50.182Z,23.73
2018-01-11T00:54:18.251Z,24.90
2018-01-11T00:56:46.329Z,22.73
2018-01-11T00:59:14.404Z,19.73
2018-01-11T01:01:42.498Z,21.10
2018-01-11T01:04:11.920Z,22.17
2018-01-11T01:06:40.758Z,22.97
2018-01-11T01:09:08.822Z,21.73
2018-01-11T01:11:36.885Z,20.27
2018-01-11T01:14:05.709Z,19.35
2018-01-11T01:16:33.772Z,20.20
2018-01-11T01:19:01.829Z,20.07
2018-01-11T01:21:30.686Z,20.08
2018-01-11T01:23:58.753Z,21.20
2018-01-11T01:26:26.837Z,21.20
2018-01-11T01:28:54.941Z,21.60
2018-01-11T01:31:23.094Z,23.10
2018-01-11T01:33:51.145Z,22.60
2018-01-11T01:36:19.206Z,20.70
2018-01-11T01:38:47.313Z,20.33
2018-01-11T01:41:15.398Z,20.60
2018-01-11T01:43:43.454Z,21.17
2018-01-11T01:46:11.591Z,20.65
2018-01-11T01:48:44.309Z,22.97
2018-01-11T01:51:12.378Z,17.77
2018-01-11T01:53:40.431Z,18.90
2018-01-11T01:56:09.250Z,20.40
2018-01-11T01:58:37.350Z,18.97
2018-01-11T02:01:05.407Z,19.87
2018-01-11T02:03:33.486Z,21.90
2018-01-11T02:06:01.573Z,20.53
2018-01-11T02:08:29.633Z,17.37
2018-01-11T02:10:57.734Z,20.67
2018-01-11T02:13:25.801Z,20.47
2018-01-11T02:15:53.854Z,19.93
2018-01-11T02:18:21.961Z,19.90
2018-01-11T02:20:50.021Z,21.37
2018-01-11T02:23:18.116Z,18.53
2018-01-11T02:25:46.200Z,18.57
2018-01-11T02:28:14.366Z,17.80
2018-01-11T02:30:42.443Z,17.13
2018-01-11T02:33:10.535Z,17.83
2018-01-11T02:35:38.602Z,17.20
2018-01-11T02:38:06.675Z,16.67
2018-01-11T02:40:34.791Z,18.17
2018-01-11T02:43:03.634Z,16.92
2018-01-11T02:45:32.033Z,17.62
2018-01-11T02:48:00.102Z,17.10
2018-01-11T02:50:28.182Z,16.47
2018-01-11T02:52:56.251Z,18.37
2018-01-11T02:55:24.314Z,15.30
2018-01-11T02:57:52.366Z,15.93
2018-01-11T03:00:25.890Z,16.07
2018-01-11T03:02:53.942Z,15.40
2018-01-11T03:05:22.014Z,13.60
2018-01-11T03:07:50.849Z,16.60
2018-01-11T03:10:18.916Z,15.63
2018-01-11T03:12:47.010Z,15.10
2018-01-11T03:15:15.078Z,15.80
2018-01-11T03:17:43.170Z,15.00
2018-01-11T03:20:11.333Z,13.93
2018-01-11T03:22:39.422Z,16.03
2018-01-11T03:25:07.478Z,16.45
2018-01-11T03:27:35.538Z,15.17
2018-01-11T03:30:03.599Z,14.60
2018-01-11T03:32:34.301Z,14.98
2018-01-11T03:35:02.875Z,14.77
2018-01-11T03:37:30.936Z,15.33
2018-01-11T03:39:59.009Z,15.20
2018-01-11T03:42:27.089Z,13.40
2018-01-11T03:44:55.158Z,15.10
2018-01-11T03:47:23.241Z,15.80
2018-01-11T03:49:51.304Z,12.93
2018-01-11T03:52:19.476Z,15.27
2018-01-11T03:54:47.549Z,14.47
2018-01-11T03:57:15.600Z,14.70
2018-01-11T03:59:44.425Z,13.23
2018-01-11T04:02:12.478Z,14.00
2018-01-11T04:04:40.541Z,13.30
2018-01-11T04:07:09.390Z,13.73
2018-01-11T04:09:37.462Z,13.43
2018-01-11T04:12:05.553Z,14.63
2018-01-11T04:14:33.635Z,12.87
2018-01-11T04:17:01.706Z,14.10
2018-01-11T04:19:29.760Z,13.77
2018-01-11T04:21:57.822Z,13.77
2018-01-11T04:24:25.877Z,12.63
2018-01-11T04:26:53.937Z,12.53
2018-01-11T04:29:22.790Z,12.17
2018-01-11T04:31:50.858Z,13.80
2018-01-11T04:34:18.904Z,13.27
2018-01-11T04:36:46.974Z,13.47
2018-01-11T04:39:15.978Z,13.63
2018-01-11T04:41:44.050Z,13.93
2018-01-11T04:44:12.170Z,13.97
2018-01-11T04:46:40.238Z,14.10
2018-01-11T04:49:08.294Z,12.52
2018-01-11T04:51:36.349Z,13.00
2018-01-11T04:54:05.177Z,13.87
2018-01-11T04:56:34.875Z,13.93
2018-01-11T04:59:04.042Z,12.47
2018-01-11T05:01:34.031Z,14.27
2018-01-11T05:04:02.082Z,13.57
2018-01-11T05:06:30.186Z,13.97
2018-01-11T05:08:58.235Z,12.70
2018-01-11T05:11:26.289Z,12.73
2018-01-11T05:13:54.358Z,12.82
2018-01-11T05:16:23.211Z,12.65
2018-01-11T05:18:51.266Z,12.63
2018-01-11T05:21:19.321Z,13.57
2018-01-11T05:23:47.386Z,13.50
2018-01-11T05:26:15.556Z,14.00
2018-01-11T05:28:44.401Z,13.00
2018-01-11T05:31:12.478Z,13.83
2018-01-11T05:33:41.338Z,12.93
2018-01-11T05:36:09.446Z,13.80
2018-01-11T05:38:37.493Z,12.10
2018-01-11T05:41:05.623Z,12.57
2018-01-11T05:43:34.774Z,13.40
2018-01-11T05:46:02.846Z,13.90
2018-01-11T05:48:30.898Z,13.62
2018-01-11T05:50:59.745Z,17.67
2018-01-11T05:53:27.801Z,12.87
2018-01-11T05:55:55.902Z,13.73
2018-01-11T05:58:23.956Z,12.37
2018-01-11T06:00:52.020Z,11.80
2018-01-11T06:03:20.133Z,11.43
2018-01-11T06:05:48.307Z,12.40
2018-01-11T06:08:16.366Z,12.10
2018-01-11T06:10:44.425Z,12.80
2018-01-11T06:13:12.482Z,11.20
2018-01-11T06:15:41.551Z,12.70
2018-01-11T06:18:09.615Z,9.82
2018-01-11T06:20:43.798Z,12.00
2018-01-11T06:23:11.906Z,11.20
2018-01-11T06:25:39.984Z,11.50
2018-01-11T06:28:08.034Z,11.53
2018-01-11T06:30:36.102Z,11.20
2018-01-11T06:33:04.158Z,15.83
2018-01-11T06:35:33.114Z,11.60
2018-01-11T06:38:01.182Z,10.13
2018-01-11T06:40:29.783Z,10.50
2018-01-11T06:42:58.670Z,11.45
2018-01-11T06:45:26.742Z,12.87
2018-01-11T06:47:54.820Z,11.07
2018-01-11T06:50:22.891Z,11.63
2018-01-11T06:52:50.975Z,13.63
2018-01-11T06:55:19.029Z,14.60
2018-01-11T06:57:47.105Z,15.20
2018-01-11T07:00:15.197Z,12.63
2018-01-11T07:02:43.273Z,11.90
2018-01-11T07:05:11.334Z,12.17
2018-01-11T07:07:39.529Z,12.03
2018-01-11T07:10:07.578Z,13.00
2018-01-11T07:12:36.197Z,11.18
2018-01-11T07:15:04.261Z,12.60
2018-01-11T07:17:32.326Z,12.90
2018-01-11T07:20:00.417Z,11.27
2018-01-11T07:22:28.493Z,13.07
2018-01-11T07:24:56.553Z,11.93
2018-01-11T07:27:24.615Z,13.03
2018-01-11T07:29:52.670Z,12.83
2018-01-11T07:32:21.506Z,12.70
2018-01-11T07:34:49.567Z,11.17
2018-01-11T07:37:17.665Z,10.80
2018-01-11T07:39:45.722Z,51.23
2018-01-11T07:42:13.805Z,61.67
2018-01-11T07:44:42.022Z,13.30
2018-01-11T07:47:10.190Z,10.87
2018-01-11T07:49:38.265Z,11.70
2018-01-11T07:52:07.565Z,11.25
2018-01-11T07:54:37.578Z,11.87
2018-01-11T07:57:07.565Z,12.20
2018-01-11T07:59:36.710Z,11.47
2018-01-11T08:02:04.786Z,10.33
2018-01-11T08:04:32.857Z,10.63
2018-01-11T08:07:00.946Z,10.90
2018-01-11T08:09:29.113Z,11.20
2018-01-11T08:11:57.281Z,11.13
2018-01-11T08:14:26.390Z,10.83
2018-01-11T08:16:54.457Z,9.98
2018-01-11T08:19:22.514Z,11.27
2018-01-11T08:21:50.586Z,10.73
2018-01-11T08:24:18.637Z,11.12
2018-01-11T08:26:47.469Z,11.53
2018-01-11T08:29:15.965Z,10.03
2018-01-11T08:31:44.047Z,9.53
2018-01-11T08:34:12.142Z,11.10
2018-01-11T08:36:40.305Z,11.87
2018-01-11T08:39:08.376Z,11.73
2018-01-11T08:41:37.036Z,11.93
2018-01-11T08:44:05.651Z,11.50
2018-01-11T08:46:33.754Z,11.43
2018-01-11T08:49:01.813Z,12.47
2018-01-11T08:51:29.873Z,12.50
2018-01-11T08:53:57.961Z,11.10
2018-01-11T08:56:26.994Z,11.97
2018-01-11T08:58:55.054Z,11.60
2018-01-11T09:01:23.122Z,11.70
2018-01-11T09:03:51.178Z,11.95
2018-01-11T09:06:19.246Z,11.73
2018-01-11T09:08:47.306Z,11.63
2018-01-11T09:11:15.418Z,10.43
2018-01-11T09:13:43.485Z,11.10
2018-01-11T09:16:11.862Z,12.70
2018-01-11T09:18:39.924Z,12.93
2018-01-11T09:21:08.353Z,12.37
2018-01-11T09:23:36.411Z,12.07
2018-01-11T09:26:04.481Z,11.57
2018-01-11T09:28:32.570Z,30.57
2018-01-11T09:31:00.631Z,12.37
2018-01-11T09:33:28.682Z,10.37
2018-01-11T09:35:56.737Z,11.00
2018-01-11T09:38:25.555Z,10.10
2018-01-11T09:40:53.661Z,10.50
2018-01-11T09:43:21.725Z,10.87
2018-01-11T09:45:49.824Z,10.33
2018-01-11T09:48:17.877Z,12.50
2018-01-11T09:50:45.974Z,12.43
2018-01-11T09:53:14.037Z,10.10
2018-01-11T09:55:42.113Z,12.43
2018-01-11T09:58:10.182Z,12.10
2018-01-11T10:00:39.311Z,12.52
2018-01-11T10:03:08.486Z,13.63
2018-01-11T10:05:36.547Z,14.67
2018-01-11T10:08:04.625Z,15.07
2018-01-11T10:10:32.687Z,12.90
2018-01-11T10:13:00.758Z,11.07
2018-01-11T10:15:28.824Z,13.40
2018-01-11T10:17:57.654Z,14.40
2018-01-11T10:20:25.707Z,14.47
2018-01-11T10:22:53.771Z,15.40
2018-01-11T10:25:22.618Z,12.53
2018-01-11T10:27:52.086Z,13.23
2018-01-11T10:30:20.173Z,12.90
2018-01-11T10:32:48.230Z,12.53
2018-01-11T10:35:17.050Z,12.20
2018-01-11T10:37:45.152Z,11.40
2018-01-11T10:40:13.478Z,12.13
2018-01-11T10:42:42.318Z,13.77
2018-01-11T10:45:10.371Z,12.53
2018-01-11T10:47:39.210Z,13.48
2018-01-11T10:50:07.274Z,13.40
2018-01-11T10:52:35.332Z,15.40
2018-01-11T10:55:03.425Z,16.20
2018-01-11T10:57:31.486Z,17.43
2018-01-11T11:00:02.464Z,16.90
2018-01-11T11:02:36.094Z,17.20
2018-01-11T11:05:04.917Z,16.57
2018-01-11T11:07:32.982Z,17.77
2018-01-11T11:10:01.090Z,16.77
2018-01-11T11:12:29.161Z,16.80
2018-01-11T11:14:57.210Z,16.90
2018-01-11T11:17:25.313Z,15.17
2018-01-11T11:19:53.494Z,16.50
2018-01-11T11:22:21.554Z,15.80
2018-01-11T11:24:49.658Z,17.70
2018-01-11T11:27:17.712Z,16.33
2018-01-11T11:29:45.810Z,17.00
2018-01-11T11:32:13.858Z,15.40
2018-01-11T11:34:41.925Z,18.07
2018-01-11T11:37:10.043Z,17.13
2018-01-11T11:39:38.101Z,16.50
2018-01-11T11:42:06.252Z,17.30
2018-01-11T11:44:34.313Z,16.90
2018-01-11T11:47:03.138Z,17.73
2018-01-11T11:49:31.197Z,16.57
2018-01-11T11:51:59.343Z,15.80
2018-01-11T11:54:27.372Z,16.53
2018-01-11T11:56:55.453Z,15.70
2018-01-11T11:59:23.522Z,15.03
2018-01-11T12:01:51.579Z,14.97
2018-01-11T12:04:20.046Z,14.27
2018-01-11T12:06:48.885Z,15.80
2018-01-11T12:09:16.946Z,15.65
2018-01-11T12:11:45.045Z,15.22
2018-01-11T12:14:13.116Z,15.30
2018-01-11T12:16:41.187Z,14.20
2018-01-11T12:19:10.209Z,14.18
2018-01-11T12:21:38.256Z,14.17
2018-01-11T12:24:06.346Z,12.17
2018-01-11T12:26:34.434Z,12.70
2018-01-11T12:29:02.533Z,14.00
2018-01-11T12:31:30.590Z,14.57
2018-01-11T12:33:58.647Z,13.47
2018-01-11T12:36:26.727Z,14.70
2018-01-11T12:38:54.836Z,12.93
2018-01-11T12:41:22.874Z,14.57
2018-01-11T12:43:50.939Z,14.17
2018-01-11T12:46:19.026Z,12.83
2018-01-11T12:48:47.105Z,17.90
2018-01-11T12:51:15.178Z,15.52
2018-01-11T12:53:43.257Z,14.63
2018-01-11T12:56:11.314Z,14.10
2018-01-11T12:58:40.494Z,15.77
2018-01-11T13:01:08.553Z,14.43
2018-01-11T13:03:37.409Z,12.77
2018-01-11T13:06:05.457Z,12.90
2018-01-11T13:08:33.562Z,14.83
2018-01-11T13:11:01.617Z,13.07
2018-01-11T13:13:29.674Z,12.87
2018-01-11T13:15:57.726Z,13.70
2018-01-11T13:18:27.161Z,13.88
2018-01-11T13:20:55.281Z,12.90
2018-01-11T13:23:23.352Z,12.70
2018-01-11T13:25:51.406Z,13.90
2018-01-11T13:28:19.499Z,11.50
2018-01-11T13:30:47.570Z,13.27
2018-01-11T13:33:15.629Z,12.70
2018-01-11T13:35:43.691Z,14.13
2018-01-11T13:38:11.743Z,13.27
2018-01-11T13:40:41.718Z,11.93
2018-01-11T13:43:09.770Z,13.30
2018-01-11T13:45:37.861Z,12.60
2018-01-11T13:48:05.920Z,12.30
2018-01-11T13:50:33.990Z,11.10
2018-01-11T13:53:02.102Z,12.27
2018-01-11T13:55:30.185Z,10.67
2018-01-11T13:57:58.255Z,10.52
2018-01-11T14:00:26.313Z,11.47
2018-01-11T14:02:54.366Z,10.00
2018-01-11T14:05:22.456Z,10.90
2018-01-11T14:07:50.569Z,9.60
2018-01-11T14:10:18.625Z,11.70
2018-01-11T14:12:46.718Z,9.50
2018-01-11T14:15:14.785Z,11.60
2018-01-11T14:17:42.861Z,11.00
2018-01-11T14:20:11.554Z,12.10
2018-01-11T14:22:39.609Z,12.37
2018-01-11T14:25:07.714Z,11.73
2018-01-11T14:27:36.603Z,12.30
2018-01-11T14:30:04.662Z,12.10
2018-01-11T14:32:33.212Z,11.20
2018-01-11T14:35:02.066Z,13.93
2018-01-11T14:37:30.126Z,13.50
2018-01-11T14:39:58.185Z,12.57
2018-01-11T14:42:26.246Z,12.87
2018-01-11T14:44:55.109Z,14.83
2018-01-11T14:47:23.253Z,12.53
2018-01-11T14:49:51.345Z,12.87
2018-01-11T14:52:19.406Z,12.70
2018-01-11T14:54:47.474Z,12.70
2018-01-11T14:57:15.527Z,11.63
2018-01-11T14:59:43.638Z,12.10
2018-01-11T15:02:11.825Z,12.73
2018-01-11T15:04:41.337Z,14.00
2018-01-11T15:07:09.407Z,13.13
2018-01-11T15:09:37.461Z,13.17
2018-01-11T15:12:05.562Z,13.80
2018-01-11T15:14:33.639Z,14.20
2018-01-11T15:17:01.698Z,13.00
2018-01-11T15:19:29.757Z,13.90
2018-01-11T15:21:57.861Z,13.80
2018-01-11T15:24:25.922Z,14.90
2018-01-11T15:26:54.018Z,13.90
2018-01-11T15:29:22.082Z,13.40
2018-01-11T15:31:50.137Z,14.23
2018-01-11T15:34:18.243Z,14.80
2018-01-11T15:36:46.319Z,16.10
2018-01-11T15:39:14.394Z,17.07
2018-01-11T15:41:42.441Z,16.07
2018-01-11T15:44:10.554Z,16.20
2018-01-11T15:46:40.428Z,16.57
2018-01-11T15:49:09.267Z,24.97
2018-01-11T15:51:37.432Z,17.27
2018-01-11T15:54:05.515Z,16.77
2018-01-11T15:56:33.570Z,17.17
2018-01-11T15:59:01.626Z,19.13
2018-01-11T16:01:29.686Z,17.47
2018-01-11T16:03:58.503Z,15.37
2018-01-11T16:06:26.610Z,16.05
2018-01-11T16:08:54.691Z,16.37
2018-01-11T16:11:22.762Z,16.70
2018-01-11T16:13:50.809Z,17.60
2018-01-11T16:16:18.914Z,21.90
2018-01-11T16:18:49.167Z,18.37
2018-01-11T16:21:17.318Z,19.05
2018-01-11T16:23:45.373Z,19.03
2018-01-11T16:26:13.465Z,20.00
2018-01-11T16:28:42.674Z,18.07
2018-01-11T16:31:10.738Z,20.17
2018-01-11T16:33:38.785Z,20.45
2018-01-11T16:36:06.850Z,19.97
2018-01-11T16:38:35.666Z,18.80
2018-01-11T16:41:03.725Z,19.00
2018-01-11T16:43:32.546Z,20.80
2018-01-11T16:46:00.635Z,24.50
2018-01-11T16:48:28.722Z,20.93
2018-01-11T16:50:56.794Z,22.73
2018-01-11T16:53:24.850Z,22.13
2018-01-11T16:55:52.917Z,22.80
2018-01-11T16:58:21.024Z,25.50
2018-01-11T17:00:49.101Z,24.83
2018-01-11T17:03:17.169Z,22.60
2018-01-11T17:05:45.242Z,21.23
2018-01-11T17:08:13.334Z,21.97
2018-01-11T17:10:41.467Z,19.37
2018-01-11T17:13:09.461Z,18.00
2018-01-11T17:15:37.513Z,16.70
2018-01-11T17:18:05.566Z,16.10
2018-01-11T17:20:34.389Z,14.90
2018-01-11T17:23:02.438Z,15.50
2018-01-11T17:25:31.261Z,15.30
2018-01-11T17:27:59.310Z,20.90
2018-01-11T17:30:28.141Z,24.45
2018-01-11T17:32:56.517Z,17.70
2018-01-11T17:35:24.586Z,17.30
2018-01-11T17:37:52.708Z,16.40
2018-01-11T17:40:21.222Z,18.97
2018-01-11T17:42:50.038Z,15.80
2018-01-11T17:45:18.100Z,18.30
2018-01-11T17:47:46.946Z,19.17
2018-01-11T17:50:15.010Z,18.30
2018-01-11T17:52:44.742Z,19.02
2018-01-11T17:55:14.517Z,19.05
2018-01-11T17:57:44.490Z,19.90
2018-01-11T18:00:13.656Z,20.23
2018-01-11T18:02:41.738Z,21.45
2018-01-11T18:05:09.786Z,26.48
2018-01-11T18:07:37.901Z,21.15
2018-01-11T18:10:05.979Z,19.17
2018-01-11T18:12:34.054Z,20.27
2018-01-11T18:15:02.106Z,22.73
2018-01-11T18:17:30.165Z,23.37
2018-01-11T18:19:58.214Z,20.70
2018-01-11T18:22:26.278Z,23.87
2018-01-11T18:24:54.698Z,29.97
2018-01-11T18:27:23.532Z,23.80
2018-01-11T18:29:51.583Z,22.37
2018-01-11T18:32:19.642Z,23.27
2018-01-11T18:34:48.802Z,22.83
2018-01-11T18:37:16.861Z,20.60
2018-01-11T18:39:44.937Z,22.30
2018-01-11T18:42:15.018Z,21.40
2018-01-11T18:44:44.958Z,24.40
2018-01-11T18:47:14.605Z,22.83
2018-01-11T18:49:42.715Z,27.40
2018-01-11T18:52:11.575Z,24.10
2018-01-11T18:54:39.638Z,23.60
2018-01-11T18:57:07.827Z,26.40
2018-01-11T18:59:35.898Z,25.03
2018-01-11T19:02:03.957Z,25.90
2018-01-11T19:04:32.054Z,32.57
2018-01-11T19:07:00.238Z,28.70
2018-01-11T19:09:28.309Z,24.80
2018-01-11T19:11:56.373Z,25.37
2018-01-11T19:14:24.454Z,24.80
2018-01-11T19:16:53.273Z,24.40
2018-01-11T19:19:21.702Z,25.60
2018-01-11T19:21:50.528Z,25.40
2018-01-11T19:24:19.333Z,28.70
2018-01-11T19:26:47.494Z,26.50
2018-01-11T19:29:15.545Z,27.48
2018-01-11T19:31:44.745Z,25.00
2018-01-11T19:34:12.801Z,26.63
2018-01-11T19:36:41.625Z,26.63
2018-01-11T19:39:09.737Z,24.73
2018-01-11T19:41:37.914Z,30.60
2018-01-11T19:44:05.965Z,26.87
2018-01-11T19:46:34.046Z,27.73
2018-01-11T19:49:02.110Z,27.70
2018-01-11T19:51:30.157Z,30.63
2018-01-11T19:53:59.145Z,27.60
2018-01-11T19:56:27.219Z,27.60
2018-01-11T19:58:56.092Z,28.03
2018-01-11T20:01:24.149Z,32.93
2018-01-11T20:03:52.442Z,26.43
2018-01-11T20:06:20.511Z,22.87
2018-01-11T20:08:48.698Z,25.00
2018-01-11T20:11:16.734Z,28.40
2018-01-11T20:13:45.100Z,22.40
2018-01-11T20:16:15.029Z,21.87
2018-01-11T20:18:43.131Z,24.55
2018-01-11T20:21:11.170Z,25.30
2018-01-11T20:23:39.276Z,22.63
2018-01-11T20:26:07.319Z,27.60
2018-01-11T20:28:36.181Z,24.90
2018-01-11T20:31:04.240Z,24.67
2018-01-11T20:33:32.721Z,26.62
2018-01-11T20:36:00.802Z,25.33
2018-01-11T20:38:28.879Z,23.20
2018-01-11T20:40:56.954Z,22.57
2018-01-11T20:43:25.021Z,23.60
2018-01-11T20:45:53.132Z,21.57
2018-01-11T20:48:21.277Z,22.10
2018-01-11T20:50:49.367Z,21.63
2018-01-11T20:53:17.460Z,20.23
2018-01-11T20:55:45.517Z,23.15
2018-01-11T20:58:13.597Z,20.40
2018-01-11T21:00:41.667Z,22.57
2018-01-11T21:03:09.720Z,19.43
2018-01-11T21:05:37.779Z,19.97
2018-01-11T21:08:05.855Z,20.10
2018-01-11T21:10:33.970Z,22.03
2018-01-11T21:13:02.076Z,20.30
2018-01-11T21:15:30.181Z,21.47
2018-01-11T21:17:58.242Z,21.13
2018-01-11T21:20:27.103Z,20.77
2018-01-11T21:22:55.154Z,17.03
2018-01-11T21:25:23.243Z,20.10
2018-01-11T21:27:51.305Z,20.50
2018-01-11T21:30:19.401Z,21.17
2018-01-11T21:32:47.461Z,21.93
2018-01-11T21:35:15.966Z,24.98
2018-01-11T21:37:44.025Z,19.87
2018-01-11T21:40:12.078Z,22.47
2018-01-11T21:42:40.156Z,19.47
2018-01-11T21:45:08.210Z,20.80
2018-01-11T21:47:37.520Z,17.20
2018-01-11T21:50:06.358Z,16.47
2018-01-11T21:52:34.417Z,16.20
2018-01-11T21:55:02.471Z,19.00
2018-01-11T21:57:30.535Z,15.17
2018-01-11T21:59:59.382Z,15.63
2018-01-11T22:02:27.894Z,15.30
2018-01-11T22:04:55.984Z,17.63
2018-01-11T22:07:24.030Z,16.63
2018-01-11T22:09:52.853Z,15.25
2018-01-11T22:12:21.702Z,16.20
2018-01-11T22:14:49.773Z,16.10
2018-01-11T22:17:17.827Z,17.17
2018-01-11T22:19:46.349Z,16.48
2018-01-11T22:22:14.413Z,16.93
2018-01-11T22:24:42.469Z,15.20
2018-01-11T22:27:10.526Z,15.30
2018-01-11T22:29:39.346Z,15.83
2018-01-11T22:32:07.881Z,12.85
2018-01-11T22:34:36.034Z,16.40
2018-01-11T22:37:04.085Z,16.58
2018-01-11T22:39:32.146Z,15.07
2018-01-11T22:42:00.203Z,17.80
2018-01-11T22:44:29.050Z,14.50
2018-01-11T22:46:57.098Z,15.77
2018-01-11T22:49:25.155Z,15.00
2018-01-11T22:51:55.761Z,17.43
2018-01-11T22:54:23.930Z,15.53
2018-01-11T22:56:51.998Z,15.77
2018-01-11T22:59:20.177Z,16.23
2018-01-11T23:01:48.234Z,15.70
2018-01-11T23:04:16.829Z,14.52
2018-01-11T23:06:44.886Z,13.30
2018-01-11T23:09:12.956Z,14.63
2018-01-11T23:11:42.732Z,16.00
2018-01-11T23:14:10.793Z,15.75
2018-01-11T23:16:38.841Z,14.10
2018-01-11T23:19:06.912Z,12.77
2018-01-11T23:21:34.958Z,13.80
2018-01-11T23:24:03.802Z,15.27
2018-01-11T23:26:31.862Z,13.67
2018-01-11T23:28:59.949Z,13.18
2018-01-11T23:31:27.994Z,13.77
2018-01-11T23:33:56.057Z,13.40
2018-01-11T23:36:24.898Z,12.93
2018-01-11T23:38:52.974Z,14.13
2018-01-11T23:41:21.028Z,13.13
2018-01-11T23:43:49.121Z,15.13
2018-01-11T23:46:17.213Z,16.97
2018-01-11T23:48:45.376Z,15.43
2018-01-11T23:51:13.454Z,13.67
2018-01-11T23:53:41.529Z,13.93
2018-01-11T23:56:09.576Z,17.17
2018-01-11T23:58:38.030Z,15.97
